sensor_id;sensor_type;location;lat;lon;timestamp;pressure;altitude;pressure_sealevel;temperature;humidity
78014;BME280;67222;50.182;8.734;2023-05-07T05:31:07;100546.25;;;14.81;77.69
78014;BME280;67222;50.182;8.734;2023-05-07T05:33:33;100542.16;;;14.78;77.16
78014;BME280;67222;50.182;8.734;2023-05-07T05:35:58;100540.63;;;14.71;77.57
78014;BME280;67222;50.182;8.734;2023-05-07T05:38:23;100551.44;;;14.64;77.77
78014;BME280;67222;50.182;8.734;2023-05-07T05:40:49;100544.19;;;14.65;77.71
78014;BME280;67222;50.182;8.734;2023-05-07T05:43:14;100541.50;;;14.65;77.69
78014;BME280;67222;50.182;8.734;2023-05-07T05:45:39;100547.53;;;14.78;77.82
78014;BME280;67222;50.182;8.734;2023-05-07T05:48:05;100541.63;;;15.00;78.29
78014;BME280;67222;50.182;8.734;2023-05-07T05:50:31;100536.50;;;14.98;77.15
78014;BME280;67222;50.182;8.734;2023-05-07T05:52:56;100537.69;;;15.14;77.50
78014;BME280;67222;50.182;8.734;2023-05-07T05:55:22;100540.63;;;15.24;77.25
78014;BME280;67222;50.182;8.734;2023-05-07T05:57:48;100541.81;;;15.28;76.41
78014;BME280;67222;50.182;8.734;2023-05-07T06:00:13;100547.88;;;15.24;76.23
78014;BME280;67222;50.182;8.734;2023-05-07T06:02:39;100544.16;;;15.36;75.17
78014;BME280;67222;50.182;8.734;2023-05-07T06:05:04;100543.84;;;15.44;75.85
78014;BME280;67222;50.182;8.734;2023-05-07T06:07:30;100545.00;;;15.49;75.76
78014;BME280;67222;50.182;8.734;2023-05-07T06:09:55;100543.97;;;15.61;75.73
78014;BME280;67222;50.182;8.734;2023-05-07T06:12:21;100544.28;;;15.53;75.34
78014;BME280;67222;50.182;8.734;2023-05-07T06:14:46;100544.19;;;15.71;75.41
78014;BME280;67222;50.182;8.734;2023-05-07T06:17:11;100546.53;;;15.91;75.06
78014;BME280;67222;50.182;8.734;2023-05-07T06:19:37;100546.38;;;15.98;75.77
78014;BME280;67222;50.182;8.734;2023-05-07T06:22:02;100547.44;;;16.09;74.68
78014;BME280;67222;50.182;8.734;2023-05-07T06:24:27;100544.88;;;16.02;72.54
78014;BME280;67222;50.182;8.734;2023-05-07T06:26:53;100547.09;;;16.05;72.44
78014;BME280;67222;50.182;8.734;2023-05-07T06:29:18;100553.63;;;16.09;73.16
78014;BME280;67222;50.182;8.734;2023-05-07T06:31:44;100557.13;;;16.10;73.11
78014;BME280;67222;50.182;8.734;2023-05-07T06:34:09;100557.63;;;15.95;71.93
78014;BME280;67222;50.182;8.734;2023-05-07T06:36:35;100553.88;;;15.96;72.27
78014;BME280;67222;50.182;8.734;2023-05-07T06:39:00;100553.19;;;16.00;72.28
78014;BME280;67222;50.182;8.734;2023-05-07T06:41:26;100552.59;;;15.98;73.13
78014;BME280;67222;50.182;8.734;2023-05-07T06:43:51;100557.53;;;16.01;73.37
78014;BME280;67222;50.182;8.734;2023-05-07T06:46:17;100565.44;;;16.08;73.42
78014;BME280;67222;50.182;8.734;2023-05-07T06:48:42;100564.38;;;16.09;73.55
78014;BME280;67222;50.182;8.734;2023-05-07T06:51:07;100564.63;;;16.19;73.74
78014;BME280;67222;50.182;8.734;2023-05-07T06:53:33;100565.53;;;16.13;72.49
78014;BME280;67222;50.182;8.734;2023-05-07T06:55:59;100560.97;;;16.14;73.81
78014;BME280;67222;50.182;8.734;2023-05-07T06:58:24;100563.44;;;16.15;72.91
78014;BME280;67222;50.182;8.734;2023-05-07T07:00:50;100562.03;;;16.24;73.57
78014;BME280;67222;50.182;8.734;2023-05-07T07:03:15;100562.75;;;16.20;73.00
78014;BME280;67222;50.182;8.734;2023-05-07T07:05:41;100559.91;;;16.26;73.31
78014;BME280;67222;50.182;8.734;2023-05-07T07:08:07;100569.97;;;16.31;71.21
78014;BME280;67222;50.182;8.734;2023-05-07T07:10:32;100566.09;;;16.39;72.85
78014;BME280;67222;50.182;8.734;2023-05-07T07:12:57;100569.31;;;16.52;72.26
78014;BME280;67222;50.182;8.734;2023-05-07T07:15:22;100559.84;;;16.50;70.99
78014;BME280;67222;50.182;8.734;2023-05-07T07:17:50;100560.38;;;16.63;72.22
78014;BME280;67222;50.182;8.734;2023-05-07T07:20:15;100568.47;;;16.75;71.47
78014;BME280;67222;50.182;8.734;2023-05-07T07:22:41;100560.72;;;16.79;68.51
78014;BME280;67222;50.182;8.734;2023-05-07T07:25:06;100562.25;;;16.91;68.32
78014;BME280;67222;50.182;8.734;2023-05-07T07:27:32;100555.66;;;16.82;66.53
78014;BME280;67222;50.182;8.734;2023-05-07T07:29:57;100564.06;;;16.86;66.87
78014;BME280;67222;50.182;8.734;2023-05-07T07:32:22;100560.88;;;16.89;65.45
78014;BME280;67222;50.182;8.734;2023-05-07T07:34:48;100568.25;;;16.93;66.30
78014;BME280;67222;50.182;8.734;2023-05-07T07:37:13;100574.22;;;16.95;65.37
78014;BME280;67222;50.182;8.734;2023-05-07T07:39:39;100573.16;;;16.97;65.76
78014;BME280;67222;50.182;8.734;2023-05-07T07:42:04;100569.19;;;17.16;66.10
78014;BME280;67222;50.182;8.734;2023-05-07T07:44:30;100570.00;;;17.16;63.89
78014;BME280;67222;50.182;8.734;2023-05-07T07:46:55;100562.81;;;17.39;67.57
78014;BME280;67222;50.182;8.734;2023-05-07T07:49:21;100559.22;;;17.50;65.94
78014;BME280;67222;50.182;8.734;2023-05-07T07:51:46;100571.03;;;17.66;66.50
78014;BME280;67222;50.182;8.734;2023-05-07T07:54:11;100568.53;;;17.76;67.78
78014;BME280;67222;50.182;8.734;2023-05-07T07:56:37;100567.22;;;17.62;62.58
78014;BME280;67222;50.182;8.734;2023-05-07T07:59:02;100568.72;;;17.52;61.50
78014;BME280;67222;50.182;8.734;2023-05-07T08:01:29;100572.94;;;17.65;62.68
78014;BME280;67222;50.182;8.734;2023-05-07T08:03:55;100575.22;;;17.90;64.56
78014;BME280;67222;50.182;8.734;2023-05-07T08:06:20;100580.94;;;17.94;61.75
78014;BME280;67222;50.182;8.734;2023-05-07T08:08:46;100582.94;;;18.03;64.22
78014;BME280;67222;50.182;8.734;2023-05-07T08:11:11;100577.50;;;17.98;60.27
78014;BME280;67222;50.182;8.734;2023-05-07T08:13:37;100580.19;;;17.98;60.77
78014;BME280;67222;50.182;8.734;2023-05-07T08:16:04;100581.69;;;17.89;60.09
78014;BME280;67222;50.182;8.734;2023-05-07T08:18:29;100571.69;;;18.06;61.76
78014;BME280;67222;50.182;8.734;2023-05-07T08:20:54;100573.94;;;18.14;60.59
78014;BME280;67222;50.182;8.734;2023-05-07T08:23:20;100577.75;;;18.19;59.70
78014;BME280;67222;50.182;8.734;2023-05-07T08:25:46;100574.94;;;18.30;60.06
78014;BME280;67222;50.182;8.734;2023-05-07T08:28:11;100573.81;;;18.26;59.57
78014;BME280;67222;50.182;8.734;2023-05-07T08:30:36;100573.31;;;18.29;59.15
78014;BME280;67222;50.182;8.734;2023-05-07T08:33:02;100573.94;;;18.36;58.98
78014;BME280;67222;50.182;8.734;2023-05-07T08:35:27;100575.63;;;18.21;59.51
78014;BME280;67222;50.182;8.734;2023-05-07T08:37:53;100577.28;;;18.43;61.77
78014;BME280;67222;50.182;8.734;2023-05-07T08:40:18;100569.03;;;18.55;63.05
78014;BME280;67222;50.182;8.734;2023-05-07T08:42:44;100571.44;;;18.30;60.22
78014;BME280;67222;50.182;8.734;2023-05-07T08:45:10;100570.31;;;18.26;59.38
78014;BME280;67222;50.182;8.734;2023-05-07T08:47:42;100572.06;;;18.37;58.74
78014;BME280;67222;50.182;8.734;2023-05-07T08:50:10;100573.50;;;18.44;59.17
78014;BME280;67222;50.182;8.734;2023-05-07T08:52:36;100576.59;;;18.31;59.75
78014;BME280;67222;50.182;8.734;2023-05-07T08:55:02;100572.56;;;18.34;60.04
78014;BME280;67222;50.182;8.734;2023-05-07T08:57:28;100566.59;;;18.32;59.41
78014;BME280;67222;50.182;8.734;2023-05-07T08:59:53;100569.81;;;18.29;59.17
78014;BME280;67222;50.182;8.734;2023-05-07T09:02:18;100564.41;;;18.29;59.21
78014;BME280;67222;50.182;8.734;2023-05-07T09:04:44;100569.75;;;18.24;59.76
78014;BME280;67222;50.182;8.734;2023-05-07T09:07:09;100572.81;;;18.32;60.04
78014;BME280;67222;50.182;8.734;2023-05-07T09:09:34;100575.31;;;18.39;60.14
78014;BME280;67222;50.182;8.734;2023-05-07T09:12:00;100569.03;;;18.55;61.81
78014;BME280;67222;50.182;8.734;2023-05-07T09:14:25;100570.25;;;18.64;59.56
78014;BME280;67222;50.182;8.734;2023-05-07T09:16:54;100572.91;;;18.86;62.47
78014;BME280;67222;50.182;8.734;2023-05-07T09:19:26;100566.66;;;18.81;58.46
78014;BME280;67222;50.182;8.734;2023-05-07T09:22:01;100571.28;;;18.85;58.70
78014;BME280;67222;50.182;8.734;2023-05-07T09:24:27;100546.50;;;18.66;57.95
78014;BME280;67222;50.182;8.734;2023-05-07T09:26:57;100573.69;;;18.82;59.30
78014;BME280;67222;50.182;8.734;2023-05-07T09:29:23;100565.03;;;18.80;58.25
78014;BME280;67222;50.182;8.734;2023-05-07T09:31:48;100567.53;;;18.86;57.82
78014;BME280;67222;50.182;8.734;2023-05-07T09:34:13;100565.78;;;19.02;58.46
78014;BME280;67222;50.182;8.734;2023-05-07T09:36:39;100566.22;;;19.21;57.37
78014;BME280;67222;50.182;8.734;2023-05-07T09:39:05;100570.44;;;19.39;58.05
78014;BME280;67222;50.182;8.734;2023-05-07T09:41:30;100565.06;;;19.44;58.04
78014;BME280;67222;50.182;8.734;2023-05-07T09:43:57;100562.50;;;19.59;56.99
78014;BME280;67222;50.182;8.734;2023-05-07T09:46:29;100559.28;;;19.67;56.29
78014;BME280;67222;50.182;8.734;2023-05-07T09:48:57;100552.13;;;19.88;60.46
78014;BME280;67222;50.182;8.734;2023-05-07T09:51:32;100554.06;;;19.92;56.45
78014;BME280;67222;50.182;8.734;2023-05-07T09:54:00;100550.53;;;19.92;55.67
78014;BME280;67222;50.182;8.734;2023-05-07T09:56:29;100554.88;;;19.93;56.01
78014;BME280;67222;50.182;8.734;2023-05-07T09:58:57;100552.34;;;19.81;55.91
78014;BME280;67222;50.182;8.734;2023-05-07T10:01:25;100558.19;;;19.63;55.40
78014;BME280;67222;50.182;8.734;2023-05-07T10:03:52;100562.47;;;19.54;55.90
78014;BME280;67222;50.182;8.734;2023-05-07T10:06:19;100560.00;;;19.52;57.22
78014;BME280;67222;50.182;8.734;2023-05-07T10:08:45;100555.59;;;19.46;57.04
78014;BME280;67222;50.182;8.734;2023-05-07T10:11:11;100551.41;;;19.60;57.82
78014;BME280;67222;50.182;8.734;2023-05-07T10:13:36;100553.44;;;19.80;57.16
78014;BME280;67222;50.182;8.734;2023-05-07T10:16:04;100557.59;;;19.98;57.33
78014;BME280;67222;50.182;8.734;2023-05-07T10:18:33;100549.63;;;20.29;55.97
78014;BME280;67222;50.182;8.734;2023-05-07T10:21:04;100549.66;;;20.34;54.54
78014;BME280;67222;50.182;8.734;2023-05-07T10:23:32;100549.63;;;20.29;53.64
78014;BME280;67222;50.182;8.734;2023-05-07T10:25:59;100545.84;;;20.35;55.50
78014;BME280;67222;50.182;8.734;2023-05-07T10:28:27;100548.38;;;20.56;55.63
78014;BME280;67222;50.182;8.734;2023-05-07T10:33:47;100549.78;;;20.74;54.98
78014;BME280;67222;50.182;8.734;2023-05-07T10:36:13;100545.75;;;20.97;53.19
78014;BME280;67222;50.182;8.734;2023-05-07T10:38:39;100539.81;;;21.21;53.47
78014;BME280;67222;50.182;8.734;2023-05-07T10:41:05;100546.06;;;21.31;52.29
78014;BME280;67222;50.182;8.734;2023-05-07T10:43:42;100538.22;;;21.45;53.62
78014;BME280;67222;50.182;8.734;2023-05-07T10:49:06;100541.97;;;21.54;52.16
78014;BME280;67222;50.182;8.734;2023-05-07T10:51:32;100538.72;;;21.52;49.61
78014;BME280;67222;50.182;8.734;2023-05-07T10:54:24;100536.56;;;21.54;50.99
78014;BME280;67222;50.182;8.734;2023-05-07T10:56:50;100543.34;;;21.62;51.61
78014;BME280;67222;50.182;8.734;2023-05-07T11:02:04;100525.94;;;21.68;51.71
78014;BME280;67222;50.182;8.734;2023-05-07T11:04:32;100530.25;;;21.84;51.81
78014;BME280;67222;50.182;8.734;2023-05-07T11:15:10;100523.38;;;22.12;52.02
78014;BME280;67222;50.182;8.734;2023-05-07T11:17:55;100522.84;;;22.20;50.95
78014;BME280;67222;50.182;8.734;2023-05-07T11:20:22;100525.47;;;22.30;50.52
78014;BME280;67222;50.182;8.734;2023-05-07T11:23:12;100523.03;;;22.29;50.01
78014;BME280;67222;50.182;8.734;2023-05-07T11:25:59;100524.28;;;22.57;49.35
78014;BME280;67222;50.182;8.734;2023-05-07T11:28:25;100526.28;;;22.80;49.98
78014;BME280;67222;50.182;8.734;2023-05-07T11:30:51;100514.78;;;22.99;48.84
78014;BME280;67222;50.182;8.734;2023-05-07T11:33:17;100512.06;;;22.99;48.28
78014;BME280;67222;50.182;8.734;2023-05-07T11:35:43;100511.00;;;23.29;49.58
78014;BME280;67222;50.182;8.734;2023-05-07T11:38:09;100504.88;;;23.42;47.29
78014;BME280;67222;50.182;8.734;2023-05-07T11:40:34;100504.31;;;23.45;46.74
78014;BME280;67222;50.182;8.734;2023-05-07T11:43:10;100505.13;;;23.45;47.34
78014;BME280;67222;50.182;8.734;2023-05-07T11:45:36;100499.34;;;23.52;46.90
78014;BME280;67222;50.182;8.734;2023-05-07T11:48:01;100503.06;;;23.61;47.43
78014;BME280;67222;50.182;8.734;2023-05-07T11:50:27;100496.13;;;23.74;47.32
78014;BME280;67222;50.182;8.734;2023-05-07T11:52:52;100499.13;;;23.96;47.38
78014;BME280;67222;50.182;8.734;2023-05-07T11:55:18;100500.81;;;23.92;44.90
78014;BME280;67222;50.182;8.734;2023-05-07T11:57:44;100495.63;;;24.14;46.12
78014;BME280;67222;50.182;8.734;2023-05-07T12:00:10;100501.31;;;23.99;45.41
78014;BME280;67222;50.182;8.734;2023-05-07T12:02:35;100490.56;;;24.08;45.22
78014;BME280;67222;50.182;8.734;2023-05-07T12:05:01;100490.69;;;24.16;44.88
78014;BME280;67222;50.182;8.734;2023-05-07T12:07:27;100488.63;;;24.08;44.35
78014;BME280;67222;50.182;8.734;2023-05-07T12:09:53;100494.91;;;24.09;45.38
78014;BME280;67222;50.182;8.734;2023-05-07T12:12:18;100491.84;;;23.92;44.82
78014;BME280;67222;50.182;8.734;2023-05-07T12:14:45;100483.50;;;23.83;44.62
78014;BME280;67222;50.182;8.734;2023-05-07T12:17:11;100476.38;;;23.87;46.11
78014;BME280;67222;50.182;8.734;2023-05-07T12:19:38;100489.63;;;23.94;47.66
78014;BME280;67222;50.182;8.734;2023-05-07T12:22:04;100484.56;;;23.87;45.11
78014;BME280;67222;50.182;8.734;2023-05-07T12:24:50;100471.81;;;23.82;48.74
78014;BME280;67222;50.182;8.734;2023-05-07T12:27:21;100484.25;;;23.65;44.49
78014;BME280;67222;50.182;8.734;2023-05-07T12:29:47;100486.72;;;23.61;44.82
78014;BME280;67222;50.182;8.734;2023-05-07T12:32:13;100480.47;;;23.61;45.55
78014;BME280;67222;50.182;8.734;2023-05-07T12:34:40;100480.09;;;23.72;44.58
78014;BME280;67222;50.182;8.734;2023-05-07T12:37:05;100484.50;;;23.68;44.74
78014;BME280;67222;50.182;8.734;2023-05-07T12:39:30;100479.94;;;23.59;45.33
78014;BME280;67222;50.182;8.734;2023-05-07T12:41:59;100477.81;;;23.79;45.91
78014;BME280;67222;50.182;8.734;2023-05-07T12:44:32;100473.53;;;23.73;45.01
78014;BME280;67222;50.182;8.734;2023-05-07T12:46:58;100483.56;;;23.78;44.34
78014;BME280;67222;50.182;8.734;2023-05-07T12:49:26;100476.91;;;23.65;45.42
78014;BME280;67222;50.182;8.734;2023-05-07T12:51:51;100477.13;;;23.69;46.47
78014;BME280;67222;50.182;8.734;2023-05-07T12:54:28;100462.28;;;23.80;44.42
78014;BME280;67222;50.182;8.734;2023-05-07T12:57:20;100469.97;;;23.97;43.88
78014;BME280;67222;50.182;8.734;2023-05-07T12:59:46;100467.91;;;23.89;44.01
78014;BME280;67222;50.182;8.734;2023-05-07T13:02:11;100459.44;;;23.90;44.20
78014;BME280;67222;50.182;8.734;2023-05-07T13:04:37;100465.06;;;23.99;44.56
78014;BME280;67222;50.182;8.734;2023-05-07T13:07:02;100460.66;;;24.03;46.55
78014;BME280;67222;50.182;8.734;2023-05-07T13:09:28;100457.94;;;24.03;43.50
78014;BME280;67222;50.182;8.734;2023-05-07T13:11:54;100457.72;;;23.99;47.37
78014;BME280;67222;50.182;8.734;2023-05-07T13:14:19;100460.72;;;23.74;43.82
78014;BME280;67222;50.182;8.734;2023-05-07T13:16:48;100462.94;;;23.72;43.70
78014;BME280;67222;50.182;8.734;2023-05-07T13:19:14;100457.97;;;23.50;45.78
78014;BME280;67222;50.182;8.734;2023-05-07T13:21:39;100452.75;;;23.30;46.17
78014;BME280;67222;50.182;8.734;2023-05-07T13:24:05;100459.06;;;23.25;44.44
78014;BME280;67222;50.182;8.734;2023-05-07T13:26:31;100457.81;;;23.12;44.17
78014;BME280;67222;50.182;8.734;2023-05-07T13:28:56;100459.97;;;23.15;44.40
78014;BME280;67222;50.182;8.734;2023-05-07T13:31:21;100455.75;;;23.28;48.68
78014;BME280;67222;50.182;8.734;2023-05-07T13:33:47;100452.84;;;23.19;45.40
78014;BME280;67222;50.182;8.734;2023-05-07T13:36:12;100446.34;;;23.15;44.59
78014;BME280;67222;50.182;8.734;2023-05-07T13:38:39;100454.22;;;23.17;44.68
78014;BME280;67222;50.182;8.734;2023-05-07T13:41:04;100453.34;;;23.26;43.57
78014;BME280;67222;50.182;8.734;2023-05-07T13:43:29;100443.56;;;23.25;48.77
78014;BME280;67222;50.182;8.734;2023-05-07T13:45:55;100439.22;;;23.24;46.16
78014;BME280;67222;50.182;8.734;2023-05-07T13:48:20;100441.00;;;23.34;50.37
78014;BME280;67222;50.182;8.734;2023-05-07T13:50:45;100430.25;;;23.19;44.69
78014;BME280;67222;50.182;8.734;2023-05-07T13:53:10;100445.97;;;23.27;48.64
78014;BME280;67222;50.182;8.734;2023-05-07T13:55:36;100440.72;;;23.36;48.60
78014;BME280;67222;50.182;8.734;2023-05-07T13:58:02;100443.06;;;23.42;46.48
78014;BME280;67222;50.182;8.734;2023-05-07T14:00:29;100450.41;;;23.47;44.54
78014;BME280;67222;50.182;8.734;2023-05-07T14:02:55;100447.19;;;23.40;43.84
78014;BME280;67222;50.182;8.734;2023-05-07T14:05:21;100433.16;;;23.56;44.35
78014;BME280;67222;50.182;8.734;2023-05-07T14:07:48;100440.34;;;23.71;46.86
78014;BME280;67222;50.182;8.734;2023-05-07T14:10:16;100435.63;;;23.77;44.17
78014;BME280;67222;50.182;8.734;2023-05-07T14:12:42;100432.88;;;23.82;44.19
78014;BME280;67222;50.182;8.734;2023-05-07T14:15:07;100435.63;;;24.01;44.50
78014;BME280;67222;50.182;8.734;2023-05-07T14:17:33;100425.84;;;24.19;43.42
78014;BME280;67222;50.182;8.734;2023-05-07T14:19:58;100437.66;;;24.33;42.53
78014;BME280;67222;50.182;8.734;2023-05-07T14:22:23;100426.31;;;24.44;44.27
78014;BME280;67222;50.182;8.734;2023-05-07T14:24:50;100431.88;;;24.53;41.67
78014;BME280;67222;50.182;8.734;2023-05-07T14:27:15;100430.50;;;24.56;41.60
78014;BME280;67222;50.182;8.734;2023-05-07T14:29:41;100427.78;;;24.37;41.47
78014;BME280;67222;50.182;8.734;2023-05-07T14:32:07;100424.31;;;24.31;41.57
78014;BME280;67222;50.182;8.734;2023-05-07T14:34:33;100426.13;;;24.17;42.72
78014;BME280;67222;50.182;8.734;2023-05-07T14:36:59;100428.78;;;24.03;41.96
78014;BME280;67222;50.182;8.734;2023-05-07T14:39:25;100429.84;;;23.83;41.89
78014;BME280;67222;50.182;8.734;2023-05-07T14:41:50;100419.88;;;23.74;42.81
78014;BME280;67222;50.182;8.734;2023-05-07T14:44:16;100430.91;;;23.64;43.55
78014;BME280;67222;50.182;8.734;2023-05-07T14:46:41;100423.13;;;23.76;47.09
78014;BME280;67222;50.182;8.734;2023-05-07T14:49:06;100418.84;;;23.70;43.55
78014;BME280;67222;50.182;8.734;2023-05-07T14:51:33;100422.59;;;23.74;45.97
78014;BME280;67222;50.182;8.734;2023-05-07T14:53:59;100424.53;;;23.73;46.09
78014;BME280;67222;50.182;8.734;2023-05-07T14:56:25;100422.03;;;23.77;46.07
78014;BME280;67222;50.182;8.734;2023-05-07T14:58:50;100428.06;;;23.74;45.53
78014;BME280;67222;50.182;8.734;2023-05-07T15:01:17;100431.28;;;23.76;48.15
78014;BME280;67222;50.182;8.734;2023-05-07T15:03:42;100440.63;;;23.70;46.03
78014;BME280;67222;50.182;8.734;2023-05-07T15:06:07;100440.94;;;23.68;42.04
78014;BME280;67222;50.182;8.734;2023-05-07T15:08:32;100444.69;;;23.72;44.87
78014;BME280;67222;50.182;8.734;2023-05-07T15:10:58;100437.41;;;23.68;42.95
78014;BME280;67222;50.182;8.734;2023-05-07T15:13:23;100447.41;;;23.72;44.32
78014;BME280;67222;50.182;8.734;2023-05-07T15:15:48;100456.97;;;23.70;43.12
78014;BME280;67222;50.182;8.734;2023-05-07T15:18:14;100447.81;;;23.61;44.25
78014;BME280;67222;50.182;8.734;2023-05-07T15:20:40;100454.03;;;23.37;42.07
78014;BME280;67222;50.182;8.734;2023-05-07T15:23:07;100459.69;;;23.41;46.25
78014;BME280;67222;50.182;8.734;2023-05-07T15:25:37;100460.19;;;23.19;44.93
78014;BME280;67222;50.182;8.734;2023-05-07T15:28:03;100460.31;;;23.09;45.71
78014;BME280;67222;50.182;8.734;2023-05-07T15:30:28;100467.50;;;22.94;45.43
78014;BME280;67222;50.182;8.734;2023-05-07T15:32:54;100464.34;;;22.77;46.33
78014;BME280;67222;50.182;8.734;2023-05-07T15:35:19;100461.81;;;22.52;45.69
78014;BME280;67222;50.182;8.734;2023-05-07T15:37:47;100465.88;;;22.49;45.77
78014;BME280;67222;50.182;8.734;2023-05-07T15:40:17;100467.47;;;22.55;49.09
78014;BME280;67222;50.182;8.734;2023-05-07T15:42:45;100461.25;;;22.55;49.99
78014;BME280;67222;50.182;8.734;2023-05-07T15:45:11;100467.25;;;22.47;49.21
78014;BME280;67222;50.182;8.734;2023-05-07T15:47:36;100473.38;;;22.23;46.29
78014;BME280;67222;50.182;8.734;2023-05-07T15:50:02;100475.88;;;22.10;47.68
78014;BME280;67222;50.182;8.734;2023-05-07T15:52:28;100476.19;;;21.93;46.88
78014;BME280;67222;50.182;8.734;2023-05-07T15:54:54;100471.06;;;21.86;48.86
78014;BME280;67222;50.182;8.734;2023-05-07T15:57:20;100472.69;;;21.87;49.32
78014;BME280;67222;50.182;8.734;2023-05-07T15:59:46;100473.00;;;21.81;48.34
78014;BME280;67222;50.182;8.734;2023-05-07T16:02:12;100464.88;;;21.75;48.40
78014;BME280;67222;50.182;8.734;2023-05-07T16:04:38;100461.59;;;21.79;48.22
78014;BME280;67222;50.182;8.734;2023-05-07T16:07:03;100465.13;;;21.79;48.81
78014;BME280;67222;50.182;8.734;2023-05-07T16:09:29;100474.03;;;21.95;51.88
78014;BME280;67222;50.182;8.734;2023-05-07T16:11:54;100468.03;;;21.93;51.52
78014;BME280;67222;50.182;8.734;2023-05-07T16:14:20;100476.78;;;21.85;51.64
78014;BME280;67222;50.182;8.734;2023-05-07T16:16:46;100476.25;;;21.77;52.38
78014;BME280;67222;50.182;8.734;2023-05-07T16:19:11;100475.78;;;21.60;49.99
78014;BME280;67222;50.182;8.734;2023-05-07T16:21:36;100469.00;;;21.53;49.77
78014;BME280;67222;50.182;8.734;2023-05-07T16:24:02;100470.06;;;21.62;52.58
78014;BME280;67222;50.182;8.734;2023-05-07T16:26:27;100472.25;;;21.55;53.14
78014;BME280;67222;50.182;8.734;2023-05-07T16:28:53;100474.97;;;21.60;54.48
78014;BME280;67222;50.182;8.734;2023-05-07T16:31:18;100471.19;;;21.45;51.97
78014;BME280;67222;50.182;8.734;2023-05-07T16:33:43;100468.22;;;21.42;53.93
78014;BME280;67222;50.182;8.734;2023-05-07T16:36:09;100473.66;;;21.42;54.36
78014;BME280;67222;50.182;8.734;2023-05-07T16:38:35;100475.25;;;21.38;54.81
78014;BME280;67222;50.182;8.734;2023-05-07T16:41:01;100465.78;;;21.30;54.26
78014;BME280;67222;50.182;8.734;2023-05-07T16:43:26;100469.31;;;21.21;53.64
78014;BME280;67222;50.182;8.734;2023-05-07T16:45:52;100470.13;;;21.21;54.29
78014;BME280;67222;50.182;8.734;2023-05-07T16:48:18;100470.63;;;21.18;55.18
78014;BME280;67222;50.182;8.734;2023-05-07T16:50:43;100470.38;;;21.20;55.67
78014;BME280;67222;50.182;8.734;2023-05-07T16:53:09;100478.25;;;21.16;56.24
78014;BME280;67222;50.182;8.734;2023-05-07T16:55:39;100481.75;;;21.16;55.87
78014;BME280;67222;50.182;8.734;2023-05-07T16:58:05;100481.25;;;21.09;56.14
78014;BME280;67222;50.182;8.734;2023-05-07T17:00:31;100480.69;;;21.07;57.09
78014;BME280;67222;50.182;8.734;2023-05-07T17:02:56;100485.03;;;20.93;56.19
78014;BME280;67222;50.182;8.734;2023-05-07T17:05:21;100489.38;;;20.94;56.72
78014;BME280;67222;50.182;8.734;2023-05-07T17:07:47;100496.97;;;20.87;56.97
78014;BME280;67222;50.182;8.734;2023-05-07T17:10:12;100498.84;;;20.71;55.12
78014;BME280;67222;50.182;8.734;2023-05-07T17:12:38;100490.97;;;20.65;53.31
78014;BME280;67222;50.182;8.734;2023-05-07T17:15:03;100498.00;;;20.61;54.45
78014;BME280;67222;50.182;8.734;2023-05-07T17:17:29;100506.69;;;20.68;55.73
78014;BME280;67222;50.182;8.734;2023-05-07T17:19:54;100504.22;;;20.56;53.91
78014;BME280;67222;50.182;8.734;2023-05-07T17:22:19;100507.19;;;20.54;54.00
78014;BME280;67222;50.182;8.734;2023-05-07T17:24:44;100518.03;;;20.54;54.19
78014;BME280;67222;50.182;8.734;2023-05-07T17:27:10;100529.97;;;20.53;55.13
78014;BME280;67222;50.182;8.734;2023-05-07T17:29:35;100556.19;;;20.43;52.35
78014;BME280;67222;50.182;8.734;2023-05-07T17:32:01;100560.84;;;20.47;56.98
78014;BME280;67222;50.182;8.734;2023-05-07T17:34:26;100561.09;;;19.93;59.67
78014;BME280;67222;50.182;8.734;2023-05-07T17:36:51;100581.31;;;19.81;60.14
78014;BME280;67222;50.182;8.734;2023-05-07T17:39:16;100592.56;;;19.67;60.68
78014;BME280;67222;50.182;8.734;2023-05-07T17:41:42;100608.22;;;19.60;62.60
78014;BME280;67222;50.182;8.734;2023-05-07T17:44:08;100617.34;;;19.22;63.50
78014;BME280;67222;50.182;8.734;2023-05-07T17:46:33;100625.50;;;19.00;65.58
78014;BME280;67222;50.182;8.734;2023-05-07T17:48:59;100627.84;;;18.70;67.00
78014;BME280;67222;50.182;8.734;2023-05-07T17:51:24;100649.28;;;18.38;67.65
78014;BME280;67222;50.182;8.734;2023-05-07T17:53:50;100639.41;;;18.05;68.59
78014;BME280;67222;50.182;8.734;2023-05-07T17:56:15;100633.34;;;17.81;69.28
78014;BME280;67222;50.182;8.734;2023-05-07T17:58:41;100640.81;;;17.74;69.58
78014;BME280;67222;50.182;8.734;2023-05-07T18:01:06;100650.91;;;17.67;70.29
78014;BME280;67222;50.182;8.734;2023-05-07T18:03:31;100641.88;;;17.73;70.54
78014;BME280;67222;50.182;8.734;2023-05-07T18:05:58;100659.97;;;17.61;71.01
78014;BME280;67222;50.182;8.734;2023-05-07T18:08:24;100668.34;;;17.47;71.11
78014;BME280;67222;50.182;8.734;2023-05-07T18:10:49;100672.47;;;17.50;72.09
78014;BME280;67222;50.182;8.734;2023-05-07T18:13:15;100668.94;;;17.33;71.93
78014;BME280;67222;50.182;8.734;2023-05-07T18:15:40;100682.03;;;17.29;73.06
78014;BME280;67222;50.182;8.734;2023-05-07T18:18:06;100677.63;;;17.23;72.61
78014;BME280;67222;50.182;8.734;2023-05-07T18:20:31;100680.53;;;17.33;73.36
78014;BME280;67222;50.182;8.734;2023-05-07T18:22:56;100686.22;;;17.20;73.01
78014;BME280;67222;50.182;8.734;2023-05-07T18:25:22;100674.66;;;17.08;72.57
78014;BME280;67222;50.182;8.734;2023-05-07T18:27:47;100683.19;;;17.16;73.17
78014;BME280;67222;50.182;8.734;2023-05-07T18:30:12;100684.91;;;17.22;72.25
78014;BME280;67222;50.182;8.734;2023-05-07T18:32:38;100691.34;;;17.21;72.60